Time;durP1;ratioP1;P1;durP2;ratioP2;P2;SDS_P1;SDS_P2;PMS_P1;PMS_P2;Temp;Humidity;BMP_temperature;BMP_pressure;BME280_temperature;BME280_humidity;BME280_pressure;Samples;Min_cycle;Max_cycle;Signal;HPM_P1;HPM_P2
2021/05/06 00:14:30;;;;;;;14.32;2.22;;;4.90;1.00;;;;;;5053639;28;20215;-58
2021/05/06 00:33:25;;;;;;;10.30;2.10;;;4.70;1.00;;;;;;5053253;28;20211;-58
2021/05/06 00:35:51;;;;;;;5.50;1.50;;;4.80;1.00;;;;;;5052942;28;20176;-58
2021/05/06 00:38:20;;;;;;;8.07;3.07;;;4.70;1.00;;;;;;5053303;28;20621;-58
2021/05/06 01:02:23;;;;;;;8.80;2.17;;;4.60;1.00;;;;;;5052629;28;20172;-58
2021/05/06 01:04:56;;;;;;;6.22;1.77;;;4.60;1.00;;;;;;5052486;28;20197;-61
2021/05/06 01:10:18;;;;;;;8.32;2.15;;;4.60;1.00;;;;;;5051978;28;20286;-61
2021/05/06 01:12:46;;;;;;;3.55;1.55;;;4.60;1.00;;;;;;5052588;28;20632;-61
2021/05/06 01:15:17;;;;;;;4.45;1.70;;;4.60;1.00;;;;;;5052421;28;20176;-61
2021/05/06 01:17:43;;;;;;;5.05;2.65;;;4.60;1.00;;;;;;5052481;28;20255;-61
2021/05/06 01:20:09;;;;;;;6.20;1.80;;;4.50;1.00;;;;;;5052569;28;20561;-61
2021/05/06 01:22:35;;;;;;;5.43;1.85;;;4.50;1.00;;;;;;5051743;28;20248;-61
2021/05/06 01:25:01;;;;;;;4.70;1.93;;;4.50;1.00;;;;;;5052198;28;20184;-61
2021/05/06 01:28:12;;;;;;;6.63;1.90;;;4.50;1.00;;;;;;5052448;28;20469;-61
2021/05/06 01:32:58;;;;;;;3.08;1.90;;;4.50;1.00;;;;;;5052412;28;20483;-62
2021/05/06 01:40:58;;;;;;;6.15;1.95;;;4.50;1.00;;;;;;5052934;28;20183;-62
2021/05/06 01:46:24;;;;;;;9.48;2.22;;;4.50;1.00;;;;;;5052317;28;20184;-62
2021/05/06 01:49:17;;;;;;;5.18;1.95;;;4.40;1.00;;;;;;5052734;28;20211;-62
2021/05/06 02:00:07;;;;;;;6.90;1.55;;;4.40;1.00;;;;;;5053456;28;20695;-62
2021/05/06 02:02:32;;;;;;;5.38;2.05;;;4.40;1.00;;;;;;5053212;28;20190;-62
2021/05/06 02:04:58;;;;;;;8.00;1.80;;;4.40;1.00;;;;;;5053733;28;20180;-62
2021/05/06 02:07:24;;;;;;;11.00;2.97;;;4.30;1.00;;;;;;5056100;28;20439;-62
2021/05/06 02:09:50;;;;;;;7.30;2.37;;;4.30;1.00;;;;;;5057837;28;20259;-62
2021/05/06 02:12:17;;;;;;;5.63;2.05;;;4.20;1.00;;;;;;5057496;28;20186;-60
2021/05/06 02:14:48;;;;;;;5.22;1.73;;;4.20;1.00;;;;;;5057979;28;20233;-60
2021/05/06 02:17:14;;;;;;;5.53;2.22;;;4.20;1.00;;;;;;5059402;28;20247;-62
2021/05/06 02:19:43;;;;;;;6.47;3.03;;;4.20;1.00;;;;;;5059500;28;20218;-62
2021/05/06 02:22:09;;;;;;;6.70;1.95;;;4.20;1.00;;;;;;5059653;28;20177;-62
2021/05/06 02:24:35;;;;;;;9.00;2.40;;;4.20;1.00;;;;;;5058767;28;20191;-62
2021/05/06 02:27:01;;;;;;;7.73;2.87;;;4.10;1.00;;;;;;5057569;28;20427;-62
2021/05/06 02:29:26;;;;;;;7.67;2.40;;;4.20;1.00;;;;;;5056081;28;20188;-62
2021/05/06 02:31:52;;;;;;;3.97;2.07;;;4.20;1.00;;;;;;5055441;28;20223;-62
2021/05/06 02:34:17;;;;;;;5.93;1.90;;;4.20;1.00;;;;;;5054913;28;20222;-62
2021/05/06 02:36:43;;;;;;;5.27;1.87;;;4.10;1.00;;;;;;5055433;28;20230;-62
2021/05/06 02:39:08;;;;;;;11.97;2.30;;;4.10;1.00;;;;;;5055568;28;20183;-62
2021/05/06 02:41:34;;;;;;;6.27;1.80;;;4.10;1.00;;;;;;5055357;28;20178;-62
2021/05/06 02:43:59;;;;;;;5.67;1.63;;;4.10;1.00;;;;;;5054834;28;20183;-62
2021/05/06 02:46:26;;;;;;;4.27;2.27;;;4.10;1.00;;;;;;5055226;28;20245;-62
2021/05/06 02:48:51;;;;;;;6.43;2.33;;;4.10;1.00;;;;;;5055257;28;20187;-62
2021/05/06 02:51:17;;;;;;;4.73;1.97;;;4.10;1.00;;;;;;5055314;28;20179;-62
2021/05/06 02:53:51;;;;;;;4.90;1.77;;;4.10;1.00;;;;;;5054831;28;20543;-62
2021/05/06 03:04:16;;;;;;;3.40;2.03;;;4.10;1.00;;;;;;5054986;28;20552;-63
2021/05/06 03:06:52;;;;;;;7.23;1.90;;;4.00;1.00;;;;;;5054865;28;20187;-63
2021/05/06 03:14:40;;;;;;;5.72;2.00;;;4.10;1.00;;;;;;5054300;28;20207;-62
2021/05/06 03:25:13;;;;;;;7.63;2.35;;;4.10;1.00;;;;;;5053302;28;20180;-62
2021/05/06 03:27:48;;;;;;;2.75;1.77;;;4.00;1.00;;;;;;5054325;28;20203;-60
2021/05/06 03:49:25;;;;;;;15.20;2.73;;;4.00;1.00;;;;;;5054241;28;20179;-59
2021/05/06 04:03:32;;;;;;;6.55;2.08;;;4.20;1.00;;;;;;5053774;28;20227;-59
2021/05/06 04:27:33;;;;;;;3.70;1.90;;;5.10;1.00;;;;;;5053699;28;20214;-62
2021/05/06 04:37:47;;;;;;;5.50;2.30;;;6.90;99.90;;;;;;5052693;28;20181;-62
2021/05/06 04:53:48;;;;;;;3.92;1.83;;;9.00;99.90;;;;;;5052431;28;20629;-63
2021/05/06 04:59:09;;;;;;;3.03;1.75;;;9.90;1.00;;;;;;5053189;28;20230;-63
2021/05/06 05:04:39;;;;;;;4.85;1.67;;;9.60;99.90;;;;;;5052663;28;20210;-63
2021/05/06 05:07:19;;;;;;;7.78;2.72;;;8.90;1.00;;;;;;5053150;28;20211;-63
2021/05/06 05:15:03;;;;;;;3.37;1.70;;;10.40;99.90;;;;;;5052047;28;20272;-63
2021/05/06 05:17:53;;;;;;;5.43;2.35;;;10.90;99.90;;;;;;5052739;28;20179;-64
2021/05/06 05:20:42;;;;;;;5.05;1.52;;;10.80;99.90;;;;;;5052625;28;20214;-65
2021/05/06 05:25:48;;;;;;;3.47;1.63;;;11.60;44.40;;;;;;5052467;28;20643;-60
2021/05/06 05:28:14;;;;;;;6.45;2.00;;;11.60;1.00;;;;;;5052673;28;20527;-60
2021/05/06 05:30:40;;;;;;;5.47;2.70;;;11.10;99.90;;;;;;5052473;28;20173;-60
2021/05/06 05:33:15;;;;;;;8.33;3.07;;;10.70;99.90;;;;;;5052328;28;20179;-59
2021/05/06 05:36:01;;;;;;;5.97;2.05;;;10.50;99.90;;;;;;5052099;28;20415;-60
2021/05/06 05:38:37;;;;;;;8.05;1.88;;;10.80;99.90;;;;;;5052619;28;20181;-60
2021/05/06 05:43:58;;;;;;;5.28;1.90;;;11.60;96.00;;;;;;5052124;28;20221;-60
2021/05/06 05:54:35;;;;;;;3.58;1.75;;;12.80;1.00;;;;;;5044602;28;20581;-63
2021/05/06 05:57:01;;;;;;;6.38;2.65;;;13.00;1.00;;;;;;5056007;28;20177;-60
2021/05/06 05:59:27;;;;;;;4.13;2.03;;;12.20;1.00;;;;;;5056126;28;20532;-60
2021/05/06 06:01:52;;;;;;;5.60;1.70;;;11.30;58.00;;;;;;5056093;28;20272;-60
2021/05/06 06:04:18;;;;;;;3.40;1.63;;;11.90;19.90;;;;;;5055036;28;20285;-60
2021/05/06 06:06:44;;;;;;;5.93;1.87;;;11.90;1.00;;;;;;5056135;28;20252;-64
2021/05/06 06:09:09;;;;;;;4.27;1.57;;;11.80;8.70;;;;;;5055969;28;20177;-63
2021/05/06 06:11:36;;;;;;;3.37;1.50;;;12.70;1.00;;;;;;5055735;28;20224;-63
2021/05/06 06:14:07;;;;;;;2.55;1.60;;;13.00;1.00;;;;;;5055020;28;20805;-63
2021/05/06 06:16:34;;;;;;;7.10;2.20;;;13.40;1.00;;;;;;5055799;28;20299;-63
2021/05/06 06:19:01;;;;;;;4.10;1.90;;;13.30;1.00;;;;;;5055415;28;20239;-63
2021/05/06 06:23:54;;;;;;;6.22;2.10;;;14.10;1.00;;;;;;5055199;28;20234;-63
2021/05/06 06:26:20;;;;;;;37.83;34.70;;;13.60;1.00;;;;;;5055473;28;20550;-62
2021/05/06 06:28:48;;;;;;;8.73;2.43;;;13.10;1.00;;;;;;5055496;28;20177;-62
2021/05/06 06:31:27;;;;;;;5.18;2.30;;;12.90;1.00;;;;;;5054325;28;20954;-63
2021/05/06 06:33:52;;;;;;;5.57;2.85;;;12.90;1.00;;;;;;5054808;28;20223;-64
2021/05/06 06:36:18;;;;;;;6.63;2.13;;;13.40;1.00;;;;;;5055083;28;20613;-64
2021/05/06 06:38:47;;;;;;;6.03;2.63;;;13.90;1.00;;;;;;5055183;28;20181;-63
2021/05/06 06:41:13;;;;;;;3.60;1.95;;;13.40;1.00;;;;;;5053947;28;20295;-63
2021/05/06 06:43:42;;;;;;;4.25;1.80;;;12.50;1.00;;;;;;5053785;28;20185;-64
2021/05/06 06:46:08;;;;;;;3.85;2.35;;;13.20;1.00;;;;;;5054722;28;20176;-63
2021/05/06 06:48:33;;;;;;;5.80;2.40;;;12.90;1.00;;;;;;5055017;28;20252;-64
2021/05/06 06:50:59;;;;;;;5.50;1.70;;;13.20;1.00;;;;;;5055213;28;20602;-62
2021/05/06 06:53:25;;;;;;;7.07;3.23;;;13.70;1.00;;;;;;5054451;28;20223;-62
2021/05/06 06:55:50;;;;;;;5.50;1.80;;;14.20;1.00;;;;;;5054679;28;20506;-65
2021/05/06 06:58:16;;;;;;;5.00;2.13;;;13.70;1.00;;;;;;5053191;28;20196;-63
2021/05/06 07:00:46;;;;;;;7.35;2.55;;;12.80;1.00;;;;;;5069700;28;20180;-63
2021/05/06 07:03:13;;;;;;;7.10;2.50;;;11.50;31.70;;;;;;5055053;28;20245;-59
2021/05/06 07:05:41;;;;;;;6.32;2.20;;;11.00;99.90;;;;;;5056601;28;20683;-62
2021/05/06 07:08:20;;;;;;;5.80;2.10;;;10.40;99.90;;;;;;5052138;28;20219;-63
2021/05/06 07:10:47;;;;;;;5.90;1.80;;;9.70;1.00;;;;;;5055336;28;20195;-64
2021/05/06 07:13:14;;;;;;;5.53;2.13;;;9.60;1.00;;;;;;5056160;28;20180;-63
2021/05/06 07:15:40;;;;;;;4.35;1.58;;;11.10;99.90;;;;;;5034409;28;20622;-64
2021/05/06 07:18:09;;;;;;;6.47;1.97;;;12.40;1.00;;;;;;5050885;28;20185;-65
2021/05/06 07:20:35;;;;;;;4.72;2.50;;;11.80;22.00;;;;;;5054773;28;20667;-63
2021/05/06 07:23:01;;;;;;;4.28;1.65;;;10.60;99.90;;;;;;5053237;28;20180;-65
2021/05/06 07:25:27;;;;;;;6.10;2.03;;;10.00;99.90;;;;;;5053834;28;20176;-65
2021/05/06 07:27:52;;;;;;;2.77;1.90;;;9.60;1.00;;;;;;5054019;28;20263;-66
2021/05/06 07:30:18;;;;;;;11.73;2.10;;;9.80;1.00;;;;;;5056005;28;20180;-66
2021/05/06 07:32:44;;;;;;;5.60;2.30;;;9.70;1.00;;;;;;5054462;28;20187;-66
2021/05/06 07:35:11;;;;;;;8.20;2.13;;;9.70;1.00;;;;;;5053622;28;20547;-66
2021/05/06 07:37:37;;;;;;;6.55;1.77;;;9.40;1.00;;;;;;5054103;28;20219;-61
2021/05/06 07:40:04;;;;;;;3.95;1.77;;;9.60;1.00;;;;;;5052948;28;20187;-66
2021/05/06 07:42:29;;;;;;;2.80;1.45;;;10.10;99.90;;;;;;5053928;28;20173;-65
2021/05/06 07:44:55;;;;;;;1.80;1.30;;;10.20;99.90;;;;;;5053400;28;20231;-65
2021/05/06 07:47:21;;;;;;;6.30;1.93;;;10.50;99.90;;;;;;5054142;28;20196;-64
2021/05/06 07:49:49;;;;;;;5.37;1.73;;;10.40;99.90;;;;;;5053657;28;20196;-66
2021/05/06 07:52:18;;;;;;;3.92;1.33;;;10.30;99.90;;;;;;5052879;28;20195;-62
2021/05/06 07:54:44;;;;;;;10.27;1.95;;;10.50;99.90;;;;;;5053017;28;20321;-61
2021/05/06 07:57:09;;;;;;;4.50;1.80;;;10.70;99.90;;;;;;5053897;28;20622;-62
2021/05/06 07:59:35;;;;;;;7.37;1.70;;;11.00;99.10;;;;;;5053286;28;20204;-64
2021/05/06 08:02:02;;;;;;;2.60;1.30;;;11.00;51.50;;;;;;5053435;28;20207;-64
2021/05/06 08:04:28;;;;;;;5.18;1.55;;;10.60;99.90;;;;;;5053484;28;20212;-61
2021/05/06 08:06:53;;;;;;;4.10;1.50;;;10.40;99.90;;;;;;5073719;28;20608;-64
2021/05/06 08:09:19;;;;;;;4.13;1.50;;;10.40;99.90;;;;;;5073356;28;20209;-64
2021/05/06 08:11:45;;;;;;;3.80;1.83;;;10.40;99.90;;;;;;5072595;28;20199;-65
2021/05/06 08:14:10;;;;;;;5.20;1.87;;;10.50;99.90;;;;;;5072608;28;20256;-62
2021/05/06 08:16:36;;;;;;;2.57;1.63;;;10.50;99.90;;;;;;5066479;28;20173;-60
2021/05/06 08:19:01;;;;;;;3.63;1.50;;;10.60;99.90;;;;;;5053078;28;20266;-61
2021/05/06 08:21:29;;;;;;;4.40;1.30;;;10.80;99.90;;;;;;5052712;28;20203;-60
2021/05/06 08:23:55;;;;;;;5.25;1.70;;;10.20;99.90;;;;;;5052993;28;20274;-61
2021/05/06 08:26:21;;;;;;;5.40;1.80;;;10.30;99.90;;;;;;5053119;28;20184;-61
2021/05/06 08:28:48;;;;;;;4.60;1.90;;;10.60;99.90;;;;;;5040622;28;20197;-59
2021/05/06 08:31:13;;;;;;;5.00;1.95;;;10.10;1.00;;;;;;5050448;28;20278;-62
2021/05/06 08:33:39;;;;;;;4.83;2.10;;;9.60;99.90;;;;;;5033173;28;20301;-61
2021/05/06 08:36:04;;;;;;;4.53;1.90;;;9.40;1.00;;;;;;5037660;28;20177;-63
2021/05/06 08:38:30;;;;;;;4.53;1.73;;;9.40;1.00;;;;;;5052763;28;20267;-66
2021/05/06 08:40:57;;;;;;;3.17;1.40;;;9.50;1.00;;;;;;5052685;28;20216;-66
2021/05/06 08:43:29;;;;;;;7.78;1.58;;;9.70;99.90;;;;;;5051442;28;20183;-66
2021/05/06 08:45:56;;;;;;;7.65;2.33;;;9.70;1.00;;;;;;5051457;28;20536;-66
2021/05/06 08:48:25;;;;;;;4.50;2.13;;;9.90;1.00;;;;;;5052756;28;20181;-61
2021/05/06 08:50:53;;;;;;;10.05;1.70;;;10.30;1.00;;;;;;5052013;28;20636;-61
2021/05/06 08:53:22;;;;;;;3.10;1.70;;;10.40;99.90;;;;;;5052222;28;20188;-61
2021/05/06 08:55:48;;;;;;;5.82;1.45;;;10.20;99.90;;;;;;5052281;28;20228;-63
2021/05/06 08:58:14;;;;;;;5.28;1.25;;;10.30;99.90;;;;;;5052816;28;20173;-66
2021/05/06 09:00:40;;;;;;;6.33;1.47;;;10.50;99.90;;;;;;5052639;28;20754;-64
2021/05/06 09:03:06;;;;;;;2.40;1.10;;;10.80;99.90;;;;;;5036131;28;20526;-64
2021/05/06 09:05:35;;;;;;;4.75;1.65;;;11.10;42.90;;;;;;5046007;28;20260;-63
2021/05/06 09:08:01;;;;;;;2.63;1.30;;;11.10;9.10;;;;;;5038817;28;20277;-64
2021/05/06 09:10:41;;;;;;;6.03;1.10;;;11.00;1.00;;;;;;5044132;28;20271;-63
2021/05/06 09:13:32;;;;;;;1.58;1.00;;;10.70;1.00;;;;;;5051546;28;20195;-63
2021/05/06 09:15:59;;;;;;;6.25;1.73;;;10.70;1.00;;;;;;5051613;28;20638;-60
2021/05/06 09:18:42;;;;;;;7.60;2.28;;;11.20;1.00;;;;;;5052078;28;20189;-60
2021/05/06 09:21:24;;;;;;;2.50;1.23;;;11.60;1.00;;;;;;5051659;28;20253;-62
2021/05/06 09:24:11;;;;;;;5.35;1.30;;;11.80;1.00;;;;;;5053528;28;20234;-62
2021/05/06 09:26:38;;;;;;;5.65;2.03;;;11.20;1.00;;;;;;5056716;28;20609;-62
2021/05/06 09:29:06;;;;;;;3.08;1.17;;;10.80;1.00;;;;;;5056059;28;20184;-62
2021/05/06 09:31:38;;;;;;;3.90;1.20;;;10.90;1.00;;;;;;5051540;28;20223;-62
2021/05/06 09:34:12;;;;;;;5.85;1.55;;;11.50;1.00;;;;;;5055572;28;20296;-62
2021/05/06 09:36:39;;;;;;;3.90;1.55;;;11.80;1.00;;;;;;5056090;28;20199;-62
2021/05/06 09:39:09;;;;;;;4.35;1.40;;;11.70;1.00;;;;;;5056082;28;20187;-62
2021/05/06 09:41:36;;;;;;;3.85;1.30;;;12.00;1.00;;;;;;5041363;28;20281;-63
2021/05/06 09:44:16;;;;;;;2.35;1.13;;;12.30;1.00;;;;;;5034633;28;20181;-63
2021/05/06 09:46:44;;;;;;;4.65;1.15;;;12.30;1.00;;;;;;5036421;28;20231;-63
2021/05/06 09:49:13;;;;;;;3.38;1.63;;;12.00;1.00;;;;;;5036149;28;20193;-62
2021/05/06 09:51:55;;;;;;;4.85;1.38;;;11.80;1.00;;;;;;5036227;28;20618;-60
2021/05/06 09:54:23;;;;;;;2.65;1.30;;;12.30;1.00;;;;;;5036489;28;20666;-62
2021/05/06 09:57:03;;;;;;;2.10;1.20;;;12.10;1.00;;;;;;5036142;28;20182;-62
2021/05/06 09:59:31;;;;;;;3.05;1.38;;;11.80;1.00;;;;;;5036392;28;20205;-62
2021/05/06 10:02:09;;;;;;;3.17;1.80;;;11.80;1.00;;;;;;5038083;28;20597;-59
2021/05/06 10:04:36;;;;;;;1.35;0.80;;;11.60;1.00;;;;;;5043893;28;20177;-63
2021/05/06 10:07:09;;;;;;;3.33;1.17;;;11.70;1.00;;;;;;5060383;28;20185;-62
2021/05/06 10:10:01;;;;;;;5.20;1.90;;;12.20;1.00;;;;;;5060549;28;20311;-62
2021/05/06 10:12:28;;;;;;;1.30;0.60;;;12.60;1.00;;;;;;5058366;28;20201;-62
2021/05/06 10:14:54;;;;;;;5.82;2.25;;;13.20;1.00;;;;;;5060489;28;20231;-62
2021/05/06 10:17:21;;;;;;;4.07;1.35;;;12.90;1.00;;;;;;5061839;28;20229;-66
2021/05/06 10:19:46;;;;;;;3.30;1.35;;;12.50;1.00;;;;;;5042968;28;20581;-66
2021/05/06 10:22:15;;;;;;;1.90;0.83;;;11.60;1.00;;;;;;5061238;28;20177;-66
2021/05/06 10:24:46;;;;;;;3.85;1.25;;;10.80;1.00;;;;;;5059057;28;20274;-65
2021/05/06 10:27:20;;;;;;;1.55;1.30;;;9.90;71.90;;;;;;5055842;28;20173;-64
2021/05/06 10:29:46;;;;;;;3.70;1.05;;;9.60;99.90;;;;;;5054482;28;20574;-66
2021/05/06 10:32:14;;;;;;;4.63;1.35;;;9.70;99.90;;;;;;5054280;28;20245;-66
2021/05/06 10:34:41;;;;;;;2.97;1.15;;;9.10;99.90;;;;;;5053921;28;20250;-63
2021/05/06 10:37:07;;;;;;;2.70;1.02;;;8.40;42.70;;;;;;5054848;28;20241;-61
2021/05/06 10:39:44;;;;;;;1.90;1.25;;;7.90;17.90;;;;;;5055315;28;20185;-65
2021/05/06 10:42:32;;;;;;;1.25;1.00;;;7.70;1.00;;;;;;5055437;28;20188;-61
2021/05/06 10:45:23;;;;;;;2.42;1.10;;;7.90;99.90;;;;;;5055374;28;20196;-62
2021/05/06 10:47:53;;;;;;;3.00;1.10;;;8.10;1.00;;;;;;5044697;28;20217;-64
2021/05/06 10:50:37;;;;;;;2.50;1.10;;;8.20;1.00;;;;;;5055374;28;20616;-63
2021/05/06 10:53:05;;;;;;;3.42;1.33;;;8.40;99.90;;;;;;5054856;28;20189;-66
2021/05/06 10:55:40;;;;;;;1.30;0.85;;;8.70;1.00;;;;;;5054459;28;20272;-66
2021/05/06 10:58:25;;;;;;;2.25;0.88;;;9.20;99.90;;;;;;5054333;28;20323;-64
2021/05/06 11:01:08;;;;;;;7.15;2.05;;;9.40;99.90;;;;;;5055086;28;20253;-63
2021/05/06 11:03:33;;;;;;;2.45;1.38;;;9.70;1.00;;;;;;5054443;28;20184;-64
2021/05/06 11:05:59;;;;;;;4.10;1.40;;;10.00;1.00;;;;;;5054016;28;20245;-63
2021/05/06 11:08:27;;;;;;;2.13;1.55;;;10.30;1.00;;;;;;5054411;28;20258;-65
2021/05/06 11:10:53;;;;;;;7.20;1.25;;;10.60;1.00;;;;;;5054051;28;20212;-65
2021/05/06 11:13:21;;;;;;;4.13;1.23;;;11.30;99.90;;;;;;5054142;28;20525;-65
2021/05/06 11:15:47;;;;;;;2.42;1.02;;;11.50;30.80;;;;;;5039334;28;20652;-64
2021/05/06 11:18:40;;;;;;;6.53;1.47;;;11.30;1.00;;;;;;5054266;28;20231;-64
2021/05/06 11:21:06;;;;;;;5.78;1.50;;;11.30;1.00;;;;;;5054347;28;20638;-63
2021/05/06 11:23:34;;;;;;;2.45;0.85;;;11.20;1.00;;;;;;5053887;28;20605;-64
2021/05/06 11:26:08;;;;;;;1.58;1.25;;;9.80;99.90;;;;;;5051666;28;20224;-62
2021/05/06 11:28:33;;;;;;;2.00;1.10;;;8.10;99.90;;;;;;5049481;28;20191;-64
2021/05/06 11:30:59;;;;;;;1.17;1.07;;;7.60;1.00;;;;;;5054356;28;20191;-64
2021/05/06 11:33:27;;;;;;;4.35;1.10;;;7.40;1.00;;;;;;5053787;28;20643;-65
2021/05/06 11:36:02;;;;;;;5.50;1.88;;;7.80;40.90;;;;;;5053400;28;20190;-64
2021/05/06 11:38:39;;;;;;;4.07;1.60;;;8.20;99.90;;;;;;5053791;28;20169;-64
2021/05/06 11:41:10;;;;;;;4.25;1.40;;;8.60;99.90;;;;;;5054781;28;20195;-66
2021/05/06 11:44:04;;;;;;;2.70;1.45;;;8.50;99.90;;;;;;5054718;28;20233;-66
2021/05/06 11:46:42;;;;;;;1.10;0.80;;;8.50;1.00;;;;;;5051435;28;20232;-66
2021/05/06 11:49:13;;;;;;;0.90;0.70;;;8.70;1.00;;;;;;5055085;28;20191;-68
2021/05/06 11:51:46;;;;;;;1.80;0.93;;;9.00;1.00;;;;;;5055100;28;20186;-67
2021/05/06 11:54:18;;;;;;;4.20;3.60;;;9.20;35.20;;;;;;5055011;28;20199;-67
2021/05/06 11:56:53;;;;;;;4.70;1.05;;;9.50;1.00;;;;;;5055118;28;20697;-66
2021/05/06 11:59:21;;;;;;;1.27;0.80;;;9.80;1.00;;;;;;5055542;28;20262;-66
2021/05/06 12:01:47;;;;;;;2.40;1.00;;;10.10;99.90;;;;;;5054096;28;20180;-66
2021/05/06 12:04:36;;;;;;;2.05;0.90;;;10.30;99.90;;;;;;5057735;28;20187;-66
2021/05/06 12:07:14;;;;;;;2.00;1.10;;;10.80;99.90;;;;;;5074527;28;20184;-62
2021/05/06 12:09:40;;;;;;;1.58;0.90;;;11.20;99.90;;;;;;5061833;28;20185;-59
2021/05/06 12:12:06;;;;;;;1.77;0.73;;;11.70;70.10;;;;;;5044115;28;20660;-62
2021/05/06 12:14:35;;;;;;;2.65;1.30;;;11.80;1.00;;;;;;5049984;28;20570;-63
2021/05/06 12:17:00;;;;;;;2.22;1.10;;;12.00;1.00;;;;;;5053514;28;20181;-61
2021/05/06 12:19:27;;;;;;;1.27;1.17;;;11.90;1.00;;;;;;5053401;28;20631;-66
2021/05/06 12:21:58;;;;;;;1.85;1.17;;;11.80;1.00;;;;;;5053406;28;20177;-62
2021/05/06 12:24:37;;;;;;;1.88;1.25;;;11.40;1.00;;;;;;5052717;28;20187;-68
2021/05/06 12:27:16;;;;;;;3.97;1.52;;;10.70;99.90;;;;;;5052911;28;20187;-66
2021/05/06 12:29:43;;;;;;;3.70;1.30;;;9.90;16.80;;;;;;5052765;28;20516;-64
2021/05/06 12:32:43;;;;;;;1.52;1.15;;;9.60;1.00;;;;;;5053038;28;20250;-66
2021/05/06 12:35:10;;;;;;;4.13;1.15;;;9.70;1.00;;;;;;5030672;28;20224;-62
2021/05/06 12:37:37;;;;;;;2.15;1.23;;;10.40;1.00;;;;;;5052749;28;20238;-66
2021/05/06 12:40:13;;;;;;;1.80;1.05;;;10.60;99.90;;;;;;5052877;28;20200;-64
2021/05/06 12:42:39;;;;;;;4.00;1.40;;;10.40;99.90;;;;;;5053048;28;20215;-60
2021/05/06 12:45:15;;;;;;;1.63;1.10;;;10.40;99.90;;;;;;5052514;28;20200;-65
2021/05/06 12:47:48;;;;;;;2.95;0.93;;;10.40;1.00;;;;;;5033765;28;20435;-66
2021/05/06 12:50:18;;;;;;;2.67;1.10;;;10.30;99.90;;;;;;5033299;28;20178;-62
2021/05/06 12:52:48;;;;;;;1.30;0.60;;;10.10;1.00;;;;;;5031981;28;20184;-61
2021/05/06 12:55:41;;;;;;;1.65;1.08;;;10.30;99.90;;;;;;5033149;28;20208;-61
2021/05/06 12:58:20;;;;;;;3.90;1.00;;;10.60;28.80;;;;;;5033063;28;20180;-64
2021/05/06 13:00:52;;;;;;;1.40;0.77;;;11.00;1.00;;;;;;5033702;28;20209;-65
2021/05/06 13:03:25;;;;;;;2.45;0.95;;;11.00;1.00;;;;;;5033133;28;20174;-64
2021/05/06 13:05:51;;;;;;;1.42;0.70;;;11.20;1.00;;;;;;5059141;28;20172;-62
2021/05/06 13:08:17;;;;;;;2.00;1.10;;;11.10;1.00;;;;;;5073319;28;20500;-64
2021/05/06 13:10:47;;;;;;;2.47;0.88;;;11.40;1.00;;;;;;5072952;28;20678;-63
2021/05/06 13:13:37;;;;;;;2.17;0.90;;;11.70;1.00;;;;;;5072828;28;20209;-62
2021/05/06 13:16:03;;;;;;;1.42;0.80;;;11.40;1.00;;;;;;5056514;28;20498;-62
2021/05/06 13:18:29;;;;;;;2.53;1.47;;;11.50;1.00;;;;;;5051901;28;20211;-62
2021/05/06 13:20:55;;;;;;;2.30;1.67;;;11.80;1.00;;;;;;5052672;28;20176;-61
2021/05/06 13:23:32;;;;;;;1.53;1.13;;;11.50;1.00;;;;;;5052793;28;20254;-61
2021/05/06 13:26:06;;;;;;;2.60;1.17;;;11.60;1.00;;;;;;5052776;28;20181;-65
2021/05/06 13:28:34;;;;;;;5.28;1.40;;;11.80;1.00;;;;;;5053179;28;20196;-63
2021/05/06 13:31:25;;;;;;;1.30;0.75;;;11.80;1.00;;;;;;5052806;28;20230;-64
2021/05/06 13:34:13;;;;;;;1.60;0.80;;;11.90;1.00;;;;;;5051479;28;20208;-65
2021/05/06 13:36:39;;;;;;;1.45;0.80;;;11.10;1.00;;;;;;5052828;28;20183;-63
2021/05/06 13:39:13;;;;;;;1.92;0.75;;;11.00;1.00;;;;;;5052795;28;20183;-64
2021/05/06 13:41:47;;;;;;;3.45;1.05;;;10.90;1.00;;;;;;5052891;28;20606;-60
2021/05/06 13:44:18;;;;;;;1.90;1.00;;;11.10;1.00;;;;;;5052325;28;20181;-63
2021/05/06 13:46:55;;;;;;;1.35;0.93;;;11.40;1.00;;;;;;5052927;28;20182;-64
2021/05/06 13:49:25;;;;;;;2.47;1.10;;;11.10;1.00;;;;;;5053115;28;20175;-64
2021/05/06 13:51:52;;;;;;;2.03;0.88;;;11.20;1.00;;;;;;5053107;28;20651;-63
2021/05/06 13:54:21;;;;;;;1.63;1.00;;;10.90;1.00;;;;;;5052467;28;20628;-64
2021/05/06 13:56:47;;;;;;;4.10;1.45;;;10.40;45.40;;;;;;5052668;28;20247;-63
2021/05/06 13:59:13;;;;;;;2.90;1.30;;;9.90;99.90;;;;;;5052673;28;20618;-60
2021/05/06 14:01:39;;;;;;;4.75;1.20;;;9.60;1.00;;;;;;5052549;28;20422;-61
2021/05/06 14:04:06;;;;;;;3.08;1.05;;;9.30;99.90;;;;;;5052135;28;20274;-64
2021/05/06 14:06:33;;;;;;;1.90;1.15;;;9.30;1.00;;;;;;5051210;28;20526;-65
2021/05/06 14:08:59;;;;;;;1.00;0.88;;;9.90;99.90;;;;;;5052828;28;20200;-62
2021/05/06 14:11:26;;;;;;;1.20;0.90;;;10.50;1.00;;;;;;5055963;28;20196;-62
2021/05/06 14:13:54;;;;;;;1.38;0.77;;;10.90;99.90;;;;;;5055912;28;20240;-65
2021/05/06 14:16:20;;;;;;;0.70;0.70;;;11.10;99.90;;;;;;5036345;28;20182;-66
2021/05/06 14:18:46;;;;;;;1.35;0.95;;;11.50;1.00;;;;;;5035388;28;20331;-66
2021/05/06 14:21:14;;;;;;;1.90;1.10;;;12.10;1.00;;;;;;5048311;28;20195;-65
2021/05/06 14:23:44;;;;;;;1.42;0.80;;;12.00;1.00;;;;;;5055323;28;20253;-65
2021/05/06 14:26:10;;;;;;;3.70;0.98;;;11.60;1.00;;;;;;5054109;28;20288;-64
2021/05/06 14:28:37;;;;;;;1.67;1.00;;;11.50;1.00;;;;;;5055307;28;20341;-62
2021/05/06 14:31:03;;;;;;;3.28;1.30;;;11.10;1.00;;;;;;5055513;28;20315;-63
2021/05/06 14:33:28;;;;;;;1.00;0.60;;;11.30;1.00;;;;;;5055249;28;20177;-63
2021/05/06 14:35:54;;;;;;;1.63;0.70;;;11.30;1.00;;;;;;5055031;28;20198;-66
2021/05/06 14:38:20;;;;;;;3.50;0.87;;;11.20;1.00;;;;;;5055337;28;20243;-62
2021/05/06 14:40:45;;;;;;;2.60;0.87;;;11.20;1.00;;;;;;5055037;28;20533;-63
2021/05/06 14:43:15;;;;;;;3.80;1.00;;;11.20;1.00;;;;;;5054842;28;20255;-62
2021/05/06 14:45:41;;;;;;;2.00;0.82;;;11.30;1.00;;;;;;5054678;28;20192;-63
2021/05/06 14:48:09;;;;;;;2.00;1.00;;;11.60;1.00;;;;;;5055470;28;20219;-66
2021/05/06 14:50:35;;;;;;;2.10;1.38;;;11.70;1.00;;;;;;5055553;28;20172;-62
2021/05/06 14:53:01;;;;;;;1.73;1.40;;;11.90;1.00;;;;;;5054956;28;20188;-63
2021/05/06 14:55:27;;;;;;;1.37;1.20;;;11.70;1.00;;;;;;5053441;28;20629;-62
2021/05/06 14:57:53;;;;;;;1.77;0.83;;;11.70;1.00;;;;;;5054605;28;20172;-62
2021/05/06 15:00:21;;;;;;;2.80;1.30;;;12.00;1.00;;;;;;5054895;28;20607;-62
2021/05/06 15:02:47;;;;;;;1.35;0.98;;;12.30;1.00;;;;;;5054820;28;20436;-63
2021/05/06 15:05:13;;;;;;;2.20;1.15;;;12.40;1.00;;;;;;5062999;28;20199;-63
2021/05/06 15:07:39;;;;;;;2.30;1.03;;;12.50;1.00;;;;;;5074430;28;20180;-63
2021/05/06 15:10:06;;;;;;;3.33;0.90;;;12.30;1.00;;;;;;5074601;28;20905;-63
2021/05/06 15:12:33;;;;;;;1.17;0.70;;;12.40;1.00;;;;;;5073850;28;20180;-61
2021/05/06 15:15:00;;;;;;;3.15;1.50;;;12.50;1.00;;;;;;5058441;28;20317;-64
2021/05/06 15:17:26;;;;;;;4.00;1.20;;;12.50;1.00;;;;;;5034285;28;20181;-62
2021/05/06 15:19:53;;;;;;;8.60;1.60;;;13.00;1.00;;;;;;5036231;28;20508;-61
2021/05/06 15:22:19;;;;;;;3.28;1.50;;;13.00;1.00;;;;;;5054330;28;20524;-66
2021/05/06 15:24:48;;;;;;;2.30;1.10;;;12.20;1.00;;;;;;5054072;28;20205;-67
2021/05/06 15:27:14;;;;;;;3.40;1.80;;;12.20;1.00;;;;;;5054391;28;20196;-65
2021/05/06 15:29:41;;;;;;;3.73;1.33;;;11.60;1.00;;;;;;5054669;28;20181;-66
2021/05/06 15:32:07;;;;;;;4.82;1.10;;;11.20;1.00;;;;;;5054037;28;20189;-67
2021/05/06 15:34:33;;;;;;;5.95;1.13;;;11.00;1.00;;;;;;5053683;28;20526;-65
2021/05/06 15:36:58;;;;;;;1.93;0.90;;;10.80;1.00;;;;;;5053781;28;20188;-64
2021/05/06 15:39:24;;;;;;;3.17;1.50;;;10.70;1.00;;;;;;5054231;28;20238;-67
2021/05/06 15:41:49;;;;;;;4.47;1.67;;;10.90;1.00;;;;;;5053594;28;20173;-64
2021/05/06 15:44:15;;;;;;;1.00;0.90;;;10.80;1.00;;;;;;5053848;28;20185;-62
2021/05/06 15:46:40;;;;;;;4.40;1.90;;;10.50;1.00;;;;;;5053903;28;20522;-63
2021/05/06 15:49:07;;;;;;;3.10;1.07;;;10.40;1.00;;;;;;5053927;28;20521;-63
2021/05/06 15:51:33;;;;;;;1.25;1.10;;;10.20;1.00;;;;;;5053674;28;20645;-63
2021/05/06 15:53:59;;;;;;;2.33;1.00;;;10.20;1.00;;;;;;5053192;28;20209;-63
2021/05/06 15:56:27;;;;;;;4.10;1.65;;;10.20;1.00;;;;;;5053595;28;20249;-67
2021/05/06 15:58:54;;;;;;;2.70;2.05;;;10.20;1.00;;;;;;5053694;28;20195;-63
2021/05/06 16:01:21;;;;;;;2.58;1.20;;;10.20;1.00;;;;;;5053914;28;20262;-63
2021/05/06 16:03:52;;;;;;;4.22;1.67;;;9.40;21.70;;;;;;5052495;28;20241;-67
2021/05/06 16:06:18;;;;;;;4.72;2.08;;;9.00;1.00;;;;;;5055798;28;20179;-64
2021/05/06 16:08:44;;;;;;;5.43;1.52;;;8.70;1.00;;;;;;5053546;28;20643;-66
2021/05/06 16:11:10;;;;;;;5.50;1.38;;;8.60;1.00;;;;;;5053391;28;20201;-67
2021/05/06 16:13:36;;;;;;;1.63;1.27;;;8.40;99.90;;;;;;5053054;28;20275;-64
2021/05/06 16:16:02;;;;;;;5.40;1.13;;;8.50;99.90;;;;;;5036598;28;20885;-66
2021/05/06 16:18:28;;;;;;;2.72;1.50;;;8.50;1.00;;;;;;5032456;28;20184;-65
2021/05/06 16:20:55;;;;;;;1.63;1.45;;;8.60;32.10;;;;;;5043957;28;20183;-62
2021/05/06 16:23:23;;;;;;;6.03;1.58;;;8.90;99.90;;;;;;5052801;28;20505;-59
2021/05/06 16:25:49;;;;;;;4.57;1.15;;;9.20;99.90;;;;;;5052906;28;20207;-59